sensor_id;sensor_type;location;lat;lon;timestamp;P1;durP1;ratioP1;P2;durP2;ratioP2
5129;SDS011;2583;50.946;6.954;2023-02-01T00:01:09;14.83;;;6.30;;
5129;SDS011;2583;50.946;6.954;2023-02-01T00:03:36;16.23;;;6.53;;
5129;SDS011;2583;50.946;6.954;2023-02-01T00:06:03;18.88;;;7.65;;
5129;SDS011;2583;50.946;6.954;2023-02-01T00:08:30;12.97;;;6.90;;
5129;SDS011;2583;50.946;6.954;2023-02-01T00:10:58;21.80;;;6.27;;
5129;SDS011;2583;50.946;6.954;2023-02-01T00:13:30;13.43;;;6.13;;
5129;SDS011;2583;50.946;6.954;2023-02-01T00:16:08;13.63;;;5.90;;
5129;SDS011;2583;50.946;6.954;2023-02-01T00:18:40;18.88;;;6.45;;
5129;SDS011;2583;50.946;6.954;2023-02-01T00:21:07;17.20;;;6.47;;
5129;SDS011;2583;50.946;6.954;2023-02-01T00:23:34;9.47;;;5.60;;
5129;SDS011;2583;50.946;6.954;2023-02-01T00:26:02;13.33;;;7.53;;
5129;SDS011;2583;50.946;6.954;2023-02-01T00:28:30;10.67;;;6.40;;
5129;SDS011;2583;50.946;6.954;2023-02-01T00:30:59;17.27;;;6.10;;
5129;SDS011;2583;50.946;6.954;2023-02-01T00:33:28;21.43;;;7.97;;
5129;SDS011;2583;50.946;6.954;2023-02-01T00:36:06;16.33;;;5.83;;
5129;SDS011;2583;50.946;6.954;2023-02-01T00:38:36;16.40;;;5.97;;
5129;SDS011;2583;50.946;6.954;2023-02-01T00:43:38;10.20;;;5.00;;
5129;SDS011;2583;50.946;6.954;2023-02-01T00:46:05;17.30;;;5.60;;
5129;SDS011;2583;50.946;6.954;2023-02-01T00:48:33;15.73;;;5.30;;
5129;SDS011;2583;50.946;6.954;2023-02-01T00:51:01;17.33;;;4.93;;
5129;SDS011;2583;50.946;6.954;2023-02-01T00:53:29;14.02;;;5.20;;
5129;SDS011;2583;50.946;6.954;2023-02-01T00:55:56;10.23;;;4.40;;
5129;SDS011;2583;50.946;6.954;2023-02-01T00:58:23;9.07;;;4.30;;
5129;SDS011;2583;50.946;6.954;2023-02-01T01:03:46;12.17;;;4.80;;
5129;SDS011;2583;50.946;6.954;2023-02-01T01:06:17;12.77;;;4.00;;
5129;SDS011;2583;50.946;6.954;2023-02-01T01:08:47;15.10;;;4.33;;
5129;SDS011;2583;50.946;6.954;2023-02-01T01:11:15;12.90;;;3.37;;
5129;SDS011;2583;50.946;6.954;2023-02-01T01:13:48;10.90;;;3.80;;
5129;SDS011;2583;50.946;6.954;2023-02-01T01:16:16;12.43;;;3.63;;
5129;SDS011;2583;50.946;6.954;2023-02-01T01:18:44;12.03;;;3.10;;
5129;SDS011;2583;50.946;6.954;2023-02-01T01:21:11;15.20;;;4.47;;
5129;SDS011;2583;50.946;6.954;2023-02-01T01:23:40;11.80;;;4.20;;
5129;SDS011;2583;50.946;6.954;2023-02-01T01:26:08;13.97;;;4.43;;
5129;SDS011;2583;50.946;6.954;2023-02-01T01:28:36;9.52;;;3.20;;
5129;SDS011;2583;50.946;6.954;2023-02-01T01:31:02;14.43;;;3.63;;
5129;SDS011;2583;50.946;6.954;2023-02-01T01:33:29;11.77;;;3.20;;
5129;SDS011;2583;50.946;6.954;2023-02-01T01:35:56;6.80;;;2.77;;
5129;SDS011;2583;50.946;6.954;2023-02-01T01:38:23;16.17;;;3.55;;
5129;SDS011;2583;50.946;6.954;2023-02-01T01:40:49;10.83;;;3.10;;
5129;SDS011;2583;50.946;6.954;2023-02-01T01:43:17;11.27;;;3.13;;
5129;SDS011;2583;50.946;6.954;2023-02-01T01:45:49;11.03;;;3.20;;
5129;SDS011;2583;50.946;6.954;2023-02-01T01:48:24;15.13;;;3.40;;
5129;SDS011;2583;50.946;6.954;2023-02-01T01:50:57;11.27;;;3.20;;
5129;SDS011;2583;50.946;6.954;2023-02-01T01:53:38;10.97;;;3.40;;
5129;SDS011;2583;50.946;6.954;2023-02-01T01:56:10;11.57;;;3.20;;
5129;SDS011;2583;50.946;6.954;2023-02-01T01:58:37;10.40;;;3.13;;
5129;SDS011;2583;50.946;6.954;2023-02-01T02:01:04;8.07;;;2.90;;
5129;SDS011;2583;50.946;6.954;2023-02-01T02:06:03;12.00;;;3.10;;
5129;SDS011;2583;50.946;6.954;2023-02-01T02:08:39;8.37;;;3.27;;
5129;SDS011;2583;50.946;6.954;2023-02-01T02:11:06;10.17;;;3.50;;
5129;SDS011;2583;50.946;6.954;2023-02-01T02:13:38;11.33;;;2.80;;
5129;SDS011;2583;50.946;6.954;2023-02-01T02:21:23;7.90;;;3.20;;
5129;SDS011;2583;50.946;6.954;2023-02-01T02:24:25;13.07;;;3.50;;
5129;SDS011;2583;50.946;6.954;2023-02-01T02:27:03;14.40;;;3.10;;
5129;SDS011;2583;50.946;6.954;2023-02-01T02:35:35;9.17;;;3.20;;
5129;SDS011;2583;50.946;6.954;2023-02-01T02:40:54;12.77;;;3.70;;
5129;SDS011;2583;50.946;6.954;2023-02-01T02:46:37;13.00;;;4.20;;
5129;SDS011;2583;50.946;6.954;2023-02-01T02:49:28;14.90;;;5.40;;
5129;SDS011;2583;50.946;6.954;2023-02-01T02:52:36;13.63;;;4.30;;
5129;SDS011;2583;50.946;6.954;2023-02-01T02:55:29;12.25;;;3.83;;
5129;SDS011;2583;50.946;6.954;2023-02-01T02:57:59;9.70;;;4.00;;
5129;SDS011;2583;50.946;6.954;2023-02-01T03:00:44;11.90;;;4.40;;
5129;SDS011;2583;50.946;6.954;2023-02-01T03:03:30;15.23;;;5.33;;
5129;SDS011;2583;50.946;6.954;2023-02-01T03:06:16;7.80;;;4.60;;
5129;SDS011;2583;50.946;6.954;2023-02-01T03:08:44;13.33;;;4.37;;
5129;SDS011;2583;50.946;6.954;2023-02-01T03:11:14;13.33;;;4.40;;
5129;SDS011;2583;50.946;6.954;2023-02-01T03:13:58;12.90;;;4.70;;
5129;SDS011;2583;50.946;6.954;2023-02-01T03:21:41;15.00;;;4.22;;
5129;SDS011;2583;50.946;6.954;2023-02-01T03:24:12;18.80;;;5.80;;
5129;SDS011;2583;50.946;6.954;2023-02-01T03:26:56;10.10;;;3.90;;
5129;SDS011;2583;50.946;6.954;2023-02-01T03:29:33;19.50;;;5.10;;
5129;SDS011;2583;50.946;6.954;2023-02-01T03:32:06;13.17;;;4.17;;
5129;SDS011;2583;50.946;6.954;2023-02-01T03:34:35;19.07;;;5.20;;
5129;SDS011;2583;50.946;6.954;2023-02-01T03:37:04;18.40;;;4.40;;
5129;SDS011;2583;50.946;6.954;2023-02-01T03:42:24;11.93;;;4.43;;
5129;SDS011;2583;50.946;6.954;2023-02-01T03:45:00;16.63;;;4.40;;
5129;SDS011;2583;50.946;6.954;2023-02-01T03:47:33;16.93;;;4.73;;
5129;SDS011;2583;50.946;6.954;2023-02-01T03:50:05;22.43;;;4.57;;
5129;SDS011;2583;50.946;6.954;2023-02-01T03:52:56;20.77;;;4.30;;
5129;SDS011;2583;50.946;6.954;2023-02-01T03:55:27;14.23;;;4.37;;
5129;SDS011;2583;50.946;6.954;2023-02-01T03:58:01;13.80;;;4.03;;
5129;SDS011;2583;50.946;6.954;2023-02-01T04:00:34;12.03;;;4.10;;
5129;SDS011;2583;50.946;6.954;2023-02-01T04:03:01;14.87;;;4.13;;
5129;SDS011;2583;50.946;6.954;2023-02-01T04:05:30;13.10;;;3.90;;
5129;SDS011;2583;50.946;6.954;2023-02-01T04:07:57;13.00;;;4.17;;
5129;SDS011;2583;50.946;6.954;2023-02-01T04:10:24;10.02;;;3.75;;
5129;SDS011;2583;50.946;6.954;2023-02-01T04:12:51;12.77;;;3.67;;
5129;SDS011;2583;50.946;6.954;2023-02-01T04:15:18;14.50;;;3.92;;
5129;SDS011;2583;50.946;6.954;2023-02-01T04:17:45;15.37;;;5.40;;
5129;SDS011;2583;50.946;6.954;2023-02-01T04:20:12;9.47;;;4.23;;
5129;SDS011;2583;50.946;6.954;2023-02-01T04:22:39;21.40;;;3.88;;
5129;SDS011;2583;50.946;6.954;2023-02-01T04:25:06;17.70;;;4.13;;
5129;SDS011;2583;50.946;6.954;2023-02-01T04:27:34;13.43;;;4.40;;
5129;SDS011;2583;50.946;6.954;2023-02-01T04:30:02;18.97;;;4.70;;
5129;SDS011;2583;50.946;6.954;2023-02-01T04:32:30;19.90;;;4.30;;
5129;SDS011;2583;50.946;6.954;2023-02-01T04:34:57;13.18;;;4.18;;
5129;SDS011;2583;50.946;6.954;2023-02-01T04:37:23;26.93;;;5.67;;
5129;SDS011;2583;50.946;6.954;2023-02-01T04:39:50;10.93;;;3.97;;
5129;SDS011;2583;50.946;6.954;2023-02-01T04:42:17;10.60;;;3.73;;
5129;SDS011;2583;50.946;6.954;2023-02-01T04:44:43;15.82;;;4.13;;
5129;SDS011;2583;50.946;6.954;2023-02-01T04:47:10;13.00;;;4.80;;
5129;SDS011;2583;50.946;6.954;2023-02-01T04:49:37;11.63;;;3.58;;
5129;SDS011;2583;50.946;6.954;2023-02-01T04:52:04;9.85;;;3.80;;
5129;SDS011;2583;50.946;6.954;2023-02-01T04:54:31;9.40;;;3.60;;
5129;SDS011;2583;50.946;6.954;2023-02-01T04:56:57;12.48;;;3.75;;
5129;SDS011;2583;50.946;6.954;2023-02-01T04:59:24;13.13;;;4.30;;
5129;SDS011;2583;50.946;6.954;2023-02-01T05:01:51;16.10;;;4.13;;
5129;SDS011;2583;50.946;6.954;2023-02-01T05:04:18;11.80;;;4.20;;
5129;SDS011;2583;50.946;6.954;2023-02-01T05:06:45;15.13;;;3.50;;
5129;SDS011;2583;50.946;6.954;2023-02-01T05:09:12;10.73;;;3.80;;
5129;SDS011;2583;50.946;6.954;2023-02-01T05:11:38;23.40;;;4.83;;
5129;SDS011;2583;50.946;6.954;2023-02-01T05:14:24;11.37;;;4.00;;
5129;SDS011;2583;50.946;6.954;2023-02-01T05:16:50;17.90;;;4.00;;
5129;SDS011;2583;50.946;6.954;2023-02-01T05:19:17;15.33;;;4.57;;
5129;SDS011;2583;50.946;6.954;2023-02-01T05:21:44;21.47;;;2.73;;
5129;SDS011;2583;50.946;6.954;2023-02-01T05:24:11;10.63;;;3.17;;
5129;SDS011;2583;50.946;6.954;2023-02-01T05:26:46;15.97;;;4.97;;
5129;SDS011;2583;50.946;6.954;2023-02-01T05:29:13;13.52;;;3.88;;
5129;SDS011;2583;50.946;6.954;2023-02-01T05:31:41;12.10;;;3.63;;
5129;SDS011;2583;50.946;6.954;2023-02-01T05:34:08;9.97;;;3.33;;
5129;SDS011;2583;50.946;6.954;2023-02-01T05:36:34;13.93;;;3.70;;
5129;SDS011;2583;50.946;6.954;2023-02-01T05:39:01;18.70;;;3.67;;
5129;SDS011;2583;50.946;6.954;2023-02-01T05:41:28;15.93;;;4.63;;
5129;SDS011;2583;50.946;6.954;2023-02-01T05:43:55;11.63;;;3.57;;
5129;SDS011;2583;50.946;6.954;2023-02-01T05:46:22;16.97;;;3.73;;
5129;SDS011;2583;50.946;6.954;2023-02-01T05:48:49;13.07;;;3.50;;
5129;SDS011;2583;50.946;6.954;2023-02-01T05:51:15;11.02;;;3.63;;
5129;SDS011;2583;50.946;6.954;2023-02-01T05:53:42;14.23;;;3.53;;
5129;SDS011;2583;50.946;6.954;2023-02-01T05:56:09;17.00;;;4.07;;
5129;SDS011;2583;50.946;6.954;2023-02-01T05:58:36;17.93;;;3.43;;
5129;SDS011;2583;50.946;6.954;2023-02-01T06:01:03;10.13;;;3.27;;
5129;SDS011;2583;50.946;6.954;2023-02-01T06:03:30;9.82;;;3.08;;
5129;SDS011;2583;50.946;6.954;2023-02-01T06:05:57;16.03;;;3.50;;
5129;SDS011;2583;50.946;6.954;2023-02-01T06:08:23;18.83;;;3.37;;
5129;SDS011;2583;50.946;6.954;2023-02-01T06:10:57;18.07;;;3.50;;
5129;SDS011;2583;50.946;6.954;2023-02-01T06:13:27;10.47;;;2.93;;
5129;SDS011;2583;50.946;6.954;2023-02-01T06:15:54;13.77;;;3.93;;
5129;SDS011;2583;50.946;6.954;2023-02-01T06:18:24;13.37;;;2.87;;
5129;SDS011;2583;50.946;6.954;2023-02-01T06:20:52;11.33;;;3.83;;
5129;SDS011;2583;50.946;6.954;2023-02-01T06:23:19;14.93;;;3.40;;
5129;SDS011;2583;50.946;6.954;2023-02-01T06:25:50;12.23;;;3.67;;
5129;SDS011;2583;50.946;6.954;2023-02-01T06:28:18;6.30;;;2.97;;
5129;SDS011;2583;50.946;6.954;2023-02-01T06:30:45;21.43;;;4.20;;
5129;SDS011;2583;50.946;6.954;2023-02-01T06:33:13;12.40;;;3.23;;
5129;SDS011;2583;50.946;6.954;2023-02-01T06:35:43;19.90;;;4.20;;
5129;SDS011;2583;50.946;6.954;2023-02-01T06:38:10;12.90;;;2.90;;
5129;SDS011;2583;50.946;6.954;2023-02-01T06:40:37;12.37;;;3.13;;
5129;SDS011;2583;50.946;6.954;2023-02-01T06:43:05;13.10;;;3.30;;
5129;SDS011;2583;50.946;6.954;2023-02-01T06:45:31;13.83;;;3.47;;
5129;SDS011;2583;50.946;6.954;2023-02-01T06:47:58;14.70;;;2.70;;
5129;SDS011;2583;50.946;6.954;2023-02-01T06:50:27;15.13;;;3.30;;
5129;SDS011;2583;50.946;6.954;2023-02-01T06:52:54;16.93;;;3.53;;
5129;SDS011;2583;50.946;6.954;2023-02-01T06:55:21;20.83;;;4.00;;
5129;SDS011;2583;50.946;6.954;2023-02-01T06:57:48;15.43;;;4.05;;
5129;SDS011;2583;50.946;6.954;2023-02-01T07:00:19;16.60;;;3.00;;
5129;SDS011;2583;50.946;6.954;2023-02-01T07:02:48;16.87;;;4.00;;
5129;SDS011;2583;50.946;6.954;2023-02-01T07:05:14;8.83;;;3.20;;
5129;SDS011;2583;50.946;6.954;2023-02-01T07:07:41;24.90;;;3.63;;
5129;SDS011;2583;50.946;6.954;2023-02-01T07:10:09;11.50;;;3.90;;
5129;SDS011;2583;50.946;6.954;2023-02-01T07:12:36;17.10;;;4.13;;
5129;SDS011;2583;50.946;6.954;2023-02-01T07:15:03;12.57;;;3.30;;
5129;SDS011;2583;50.946;6.954;2023-02-01T07:17:30;10.33;;;3.30;;
5129;SDS011;2583;50.946;6.954;2023-02-01T07:19:57;16.90;;;3.90;;
5129;SDS011;2583;50.946;6.954;2023-02-01T07:22:27;12.03;;;4.77;;
5129;SDS011;2583;50.946;6.954;2023-02-01T07:24:55;27.13;;;4.68;;
5129;SDS011;2583;50.946;6.954;2023-02-01T07:27:22;16.60;;;4.10;;
5129;SDS011;2583;50.946;6.954;2023-02-01T07:29:51;10.77;;;3.10;;
5129;SDS011;2583;50.946;6.954;2023-02-01T07:32:18;14.10;;;3.67;;
5129;SDS011;2583;50.946;6.954;2023-02-01T07:34:45;16.63;;;3.53;;
5129;SDS011;2583;50.946;6.954;2023-02-01T07:37:12;11.00;;;4.07;;
5129;SDS011;2583;50.946;6.954;2023-02-01T07:39:38;20.10;;;4.43;;
5129;SDS011;2583;50.946;6.954;2023-02-01T07:42:05;13.13;;;3.42;;
5129;SDS011;2583;50.946;6.954;2023-02-01T07:44:32;12.83;;;4.30;;
5129;SDS011;2583;50.946;6.954;2023-02-01T07:46:59;19.67;;;3.40;;
5129;SDS011;2583;50.946;6.954;2023-02-01T07:49:26;11.30;;;3.23;;
5129;SDS011;2583;50.946;6.954;2023-02-01T07:51:53;15.73;;;3.50;;
5129;SDS011;2583;50.946;6.954;2023-02-01T07:54:19;8.63;;;3.50;;
5129;SDS011;2583;50.946;6.954;2023-02-01T07:56:46;21.37;;;4.50;;
5129;SDS011;2583;50.946;6.954;2023-02-01T07:59:13;10.93;;;3.50;;
5129;SDS011;2583;50.946;6.954;2023-02-01T08:01:41;16.93;;;4.30;;
5129;SDS011;2583;50.946;6.954;2023-02-01T08:04:09;12.57;;;3.60;;
5129;SDS011;2583;50.946;6.954;2023-02-01T08:06:37;16.47;;;3.93;;
5129;SDS011;2583;50.946;6.954;2023-02-01T08:09:05;18.80;;;3.90;;
5129;SDS011;2583;50.946;6.954;2023-02-01T08:11:34;13.57;;;3.27;;
5129;SDS011;2583;50.946;6.954;2023-02-01T08:14:04;19.20;;;3.43;;
5129;SDS011;2583;50.946;6.954;2023-02-01T08:16:32;14.33;;;3.80;;
5129;SDS011;2583;50.946;6.954;2023-02-01T08:19:01;11.82;;;3.13;;
5129;SDS011;2583;50.946;6.954;2023-02-01T08:21:28;22.20;;;5.50;;
5129;SDS011;2583;50.946;6.954;2023-02-01T08:24:05;12.60;;;4.00;;
5129;SDS011;2583;50.946;6.954;2023-02-01T08:26:34;14.93;;;2.97;;
5129;SDS011;2583;50.946;6.954;2023-02-01T08:29:01;15.23;;;3.30;;
5129;SDS011;2583;50.946;6.954;2023-02-01T08:31:31;17.50;;;3.83;;
5129;SDS011;2583;50.946;6.954;2023-02-01T08:33:59;14.73;;;3.03;;
5129;SDS011;2583;50.946;6.954;2023-02-01T08:36:29;22.80;;;3.70;;
5129;SDS011;2583;50.946;6.954;2023-02-01T08:38:57;17.00;;;4.23;;
5129;SDS011;2583;50.946;6.954;2023-02-01T08:41:25;21.63;;;4.80;;
5129;SDS011;2583;50.946;6.954;2023-02-01T08:43:54;16.60;;;4.23;;
5129;SDS011;2583;50.946;6.954;2023-02-01T08:46:22;9.37;;;3.27;;
5129;SDS011;2583;50.946;6.954;2023-02-01T08:48:50;13.60;;;3.20;;
5129;SDS011;2583;50.946;6.954;2023-02-01T08:51:19;10.90;;;3.20;;
5129;SDS011;2583;50.946;6.954;2023-02-01T08:53:47;14.20;;;3.70;;
5129;SDS011;2583;50.946;6.954;2023-02-01T08:56:14;17.87;;;3.47;;
5129;SDS011;2583;50.946;6.954;2023-02-01T08:58:42;12.23;;;3.60;;
5129;SDS011;2583;50.946;6.954;2023-02-01T09:01:10;11.30;;;3.73;;
5129;SDS011;2583;50.946;6.954;2023-02-01T09:03:39;12.85;;;3.33;;
5129;SDS011;2583;50.946;6.954;2023-02-01T09:06:07;19.95;;;4.10;;
5129;SDS011;2583;50.946;6.954;2023-02-01T09:08:36;9.10;;;3.15;;
5129;SDS011;2583;50.946;6.954;2023-02-01T09:11:05;12.53;;;3.17;;
5129;SDS011;2583;50.946;6.954;2023-02-01T09:13:33;21.53;;;3.13;;
5129;SDS011;2583;50.946;6.954;2023-02-01T09:16:01;15.57;;;3.60;;
5129;SDS011;2583;50.946;6.954;2023-02-01T09:18:29;21.77;;;5.00;;
5129;SDS011;2583;50.946;6.954;2023-02-01T09:20:56;14.30;;;3.47;;
5129;SDS011;2583;50.946;6.954;2023-02-01T09:23:23;19.73;;;3.87;;
5129;SDS011;2583;50.946;6.954;2023-02-01T09:25:50;12.93;;;3.38;;
5129;SDS011;2583;50.946;6.954;2023-02-01T09:28:18;20.80;;;3.77;;
5129;SDS011;2583;50.946;6.954;2023-02-01T09:30:45;8.40;;;2.93;;
5129;SDS011;2583;50.946;6.954;2023-02-01T09:33:12;16.35;;;3.65;;
5129;SDS011;2583;50.946;6.954;2023-02-01T09:35:39;20.07;;;4.83;;
5129;SDS011;2583;50.946;6.954;2023-02-01T09:38:06;14.67;;;4.13;;
5129;SDS011;2583;50.946;6.954;2023-02-01T09:40:33;13.03;;;3.80;;
5129;SDS011;2583;50.946;6.954;2023-02-01T09:43:26;12.00;;;3.60;;
5129;SDS011;2583;50.946;6.954;2023-02-01T09:46:13;14.03;;;3.93;;
5129;SDS011;2583;50.946;6.954;2023-02-01T09:48:53;17.73;;;3.53;;
5129;SDS011;2583;50.946;6.954;2023-02-01T09:51:31;15.30;;;3.60;;
5129;SDS011;2583;50.946;6.954;2023-02-01T09:54:04;30.80;;;5.10;;
5129;SDS011;2583;50.946;6.954;2023-02-01T09:56:59;28.73;;;3.60;;
5129;SDS011;2583;50.946;6.954;2023-02-01T09:59:31;10.37;;;3.00;;
5129;SDS011;2583;50.946;6.954;2023-02-01T10:04:42;16.17;;;3.83;;
5129;SDS011;2583;50.946;6.954;2023-02-01T10:15:26;12.53;;;4.30;;
5129;SDS011;2583;50.946;6.954;2023-02-01T10:26:57;17.63;;;3.80;;
5129;SDS011;2583;50.946;6.954;2023-02-01T10:29:36;14.67;;;3.93;;
5129;SDS011;2583;50.946;6.954;2023-02-01T10:32:24;13.87;;;3.60;;
5129;SDS011;2583;50.946;6.954;2023-02-01T10:34:59;8.53;;;3.33;;
5129;SDS011;2583;50.946;6.954;2023-02-01T10:37:36;11.00;;;3.17;;
5129;SDS011;2583;50.946;6.954;2023-02-01T10:40:16;17.90;;;3.50;;
5129;SDS011;2583;50.946;6.954;2023-02-01T10:42:49;11.43;;;3.73;;
5129;SDS011;2583;50.946;6.954;2023-02-01T10:45:21;14.37;;;3.40;;
5129;SDS011;2583;50.946;6.954;2023-02-01T10:47:51;10.00;;;2.80;;
5129;SDS011;2583;50.946;6.954;2023-02-01T10:53:54;12.40;;;3.80;;
5129;SDS011;2583;50.946;6.954;2023-02-01T10:56:08;12.67;;;2.67;;
5129;SDS011;2583;50.946;6.954;2023-02-01T10:58:36;11.20;;;2.80;;
5129;SDS011;2583;50.946;6.954;2023-02-01T11:01:17;13.13;;;2.60;;
5129;SDS011;2583;50.946;6.954;2023-02-01T11:03:57;9.93;;;3.40;;
5129;SDS011;2583;50.946;6.954;2023-02-01T11:06:27;14.03;;;3.30;;
5129;SDS011;2583;50.946;6.954;2023-02-01T11:08:55;10.03;;;3.53;;
5129;SDS011;2583;50.946;6.954;2023-02-01T11:11:32;20.93;;;3.63;;
5129;SDS011;2583;50.946;6.954;2023-02-01T11:14:00;13.97;;;3.27;;
5129;SDS011;2583;50.946;6.954;2023-02-01T11:16:37;23.77;;;4.60;;
5129;SDS011;2583;50.946;6.954;2023-02-01T11:19:05;12.95;;;3.25;;
5129;SDS011;2583;50.946;6.954;2023-02-01T11:21:33;9.20;;;3.77;;
5129;SDS011;2583;50.946;6.954;2023-02-01T11:24:01;10.17;;;2.90;;
5129;SDS011;2583;50.946;6.954;2023-02-01T11:26:30;22.00;;;3.10;;
5129;SDS011;2583;50.946;6.954;2023-02-01T11:29:10;10.67;;;2.60;;
5129;SDS011;2583;50.946;6.954;2023-02-01T11:31:39;11.60;;;3.10;;
5129;SDS011;2583;50.946;6.954;2023-02-01T11:34:12;10.18;;;3.33;;
5129;SDS011;2583;50.946;6.954;2023-02-01T11:36:42;11.73;;;2.70;;
5129;SDS011;2583;50.946;6.954;2023-02-01T11:44:20;11.13;;;3.07;;
5129;SDS011;2583;50.946;6.954;2023-02-01T11:46:49;15.53;;;3.30;;
5129;SDS011;2583;50.946;6.954;2023-02-01T11:49:25;15.33;;;3.23;;
5129;SDS011;2583;50.946;6.954;2023-02-01T12:12:04;16.30;;;3.33;;
5129;SDS011;2583;50.946;6.954;2023-02-01T12:30:14;12.37;;;3.00;;
5129;SDS011;2583;50.946;6.954;2023-02-01T12:36:16;13.37;;;3.90;;
5129;SDS011;2583;50.946;6.954;2023-02-01T12:44:49;12.97;;;2.57;;
5129;SDS011;2583;50.946;6.954;2023-02-01T12:47:24;13.65;;;2.97;;
5129;SDS011;2583;50.946;6.954;2023-02-01T12:50:06;13.50;;;3.25;;
5129;SDS011;2583;50.946;6.954;2023-02-01T12:52:48;12.68;;;3.70;;
5129;SDS011;2583;50.946;6.954;2023-02-01T12:58:14;10.57;;;2.60;;
5129;SDS011;2583;50.946;6.954;2023-02-01T13:00:50;11.70;;;2.40;;
5129;SDS011;2583;50.946;6.954;2023-02-01T13:06:39;17.80;;;2.57;;
5129;SDS011;2583;50.946;6.954;2023-02-01T13:09:25;13.53;;;3.50;;
5129;SDS011;2583;50.946;6.954;2023-02-01T13:12:22;16.40;;;3.70;;
5129;SDS011;2583;50.946;6.954;2023-02-01T13:15:00;11.10;;;3.17;;
5129;SDS011;2583;50.946;6.954;2023-02-01T13:17:47;8.60;;;2.63;;
5129;SDS011;2583;50.946;6.954;2023-02-01T13:20:22;13.23;;;3.65;;
5129;SDS011;2583;50.946;6.954;2023-02-01T13:22:59;16.07;;;3.20;;
5129;SDS011;2583;50.946;6.954;2023-02-01T13:25:32;9.37;;;3.00;;
5129;SDS011;2583;50.946;6.954;2023-02-01T13:28:10;12.00;;;2.73;;
5129;SDS011;2583;50.946;6.954;2023-02-01T13:41:39;10.47;;;3.27;;
5129;SDS011;2583;50.946;6.954;2023-02-01T13:44:23;11.87;;;2.80;;
5129;SDS011;2583;50.946;6.954;2023-02-01T13:46:59;7.40;;;2.87;;
5129;SDS011;2583;50.946;6.954;2023-02-01T13:49:29;15.23;;;3.60;;
5129;SDS011;2583;50.946;6.954;2023-02-01T13:52:02;11.60;;;2.90;;
5129;SDS011;2583;50.946;6.954;2023-02-01T13:57:04;11.53;;;3.40;;
5129;SDS011;2583;50.946;6.954;2023-02-01T13:59:51;18.57;;;2.97;;
5129;SDS011;2583;50.946;6.954;2023-02-01T14:05:10;11.30;;;3.33;;
5129;SDS011;2583;50.946;6.954;2023-02-01T14:08:35;16.95;;;4.18;;
5129;SDS011;2583;50.946;6.954;2023-02-01T14:10:48;11.23;;;3.45;;
5129;SDS011;2583;50.946;6.954;2023-02-01T14:13:35;12.47;;;3.30;;
5129;SDS011;2583;50.946;6.954;2023-02-01T14:37:00;9.63;;;2.50;;
5129;SDS011;2583;50.946;6.954;2023-02-01T14:39:53;13.70;;;3.00;;
5129;SDS011;2583;50.946;6.954;2023-02-01T14:47:43;13.27;;;2.97;;
5129;SDS011;2583;50.946;6.954;2023-02-01T14:53:06;11.83;;;2.63;;
5129;SDS011;2583;50.946;6.954;2023-02-01T15:00:49;6.57;;;2.30;;
5129;SDS011;2583;50.946;6.954;2023-02-01T15:03:36;8.97;;;3.30;;
5129;SDS011;2583;50.946;6.954;2023-02-01T15:06:12;7.50;;;1.93;;
5129;SDS011;2583;50.946;6.954;2023-02-01T15:08:49;7.17;;;2.30;;
5129;SDS011;2583;50.946;6.954;2023-02-01T15:11:21;7.27;;;2.27;;
5129;SDS011;2583;50.946;6.954;2023-02-01T15:13:49;11.43;;;2.83;;
5129;SDS011;2583;50.946;6.954;2023-02-01T15:16:21;15.80;;;3.10;;
5129;SDS011;2583;50.946;6.954;2023-02-01T15:18:50;9.88;;;2.70;;
5129;SDS011;2583;50.946;6.954;2023-02-01T15:21:42;10.90;;;2.47;;
5129;SDS011;2583;50.946;6.954;2023-02-01T15:24:14;10.33;;;2.80;;
5129;SDS011;2583;50.946;6.954;2023-02-01T15:26:50;7.43;;;2.80;;
5129;SDS011;2583;50.946;6.954;2023-02-01T15:29:18;7.03;;;2.10;;
5129;SDS011;2583;50.946;6.954;2023-02-01T15:31:49;12.10;;;2.50;;
5129;SDS011;2583;50.946;6.954;2023-02-01T15:34:18;7.77;;;2.47;;
5129;SDS011;2583;50.946;6.954;2023-02-01T15:36:46;11.03;;;2.63;;
5129;SDS011;2583;50.946;6.954;2023-02-01T15:39:27;10.80;;;2.30;;
5129;SDS011;2583;50.946;6.954;2023-02-01T15:41:58;8.67;;;2.40;;
5129;SDS011;2583;50.946;6.954;2023-02-01T15:47:16;10.97;;;2.13;;
5129;SDS011;2583;50.946;6.954;2023-02-01T15:49:47;11.13;;;3.23;;
5129;SDS011;2583;50.946;6.954;2023-02-01T15:52:25;8.90;;;2.33;;
5129;SDS011;2583;50.946;6.954;2023-02-01T15:55:07;8.97;;;2.30;;
5129;SDS011;2583;50.946;6.954;2023-02-01T15:57:44;7.13;;;2.20;;
5129;SDS011;2583;50.946;6.954;2023-02-01T16:00:25;12.75;;;2.58;;
5129;SDS011;2583;50.946;6.954;2023-02-01T16:02:55;5.20;;;1.90;;
5129;SDS011;2583;50.946;6.954;2023-02-01T16:05:29;7.13;;;1.83;;
5129;SDS011;2583;50.946;6.954;2023-02-01T16:08:21;11.37;;;3.50;;
5129;SDS011;2583;50.946;6.954;2023-02-01T16:10:51;6.57;;;1.80;;
5129;SDS011;2583;50.946;6.954;2023-02-01T16:13:20;12.63;;;2.83;;
5129;SDS011;2583;50.946;6.954;2023-02-01T16:15:48;5.40;;;1.90;;
5129;SDS011;2583;50.946;6.954;2023-02-01T16:18:15;18.03;;;2.90;;
5129;SDS011;2583;50.946;6.954;2023-02-01T16:20:44;10.60;;;3.00;;
5129;SDS011;2583;50.946;6.954;2023-02-01T16:23:11;5.33;;;1.60;;
5129;SDS011;2583;50.946;6.954;2023-02-01T16:25:39;6.63;;;2.83;;
5129;SDS011;2583;50.946;6.954;2023-02-01T16:28:06;8.93;;;2.23;;
5129;SDS011;2583;50.946;6.954;2023-02-01T16:30:34;6.30;;;2.70;;
5129;SDS011;2583;50.946;6.954;2023-02-01T16:33:02;5.90;;;2.88;;
5129;SDS011;2583;50.946;6.954;2023-02-01T16:35:38;9.60;;;2.77;;
5129;SDS011;2583;50.946;6.954;2023-02-01T16:38:11;9.15;;;2.75;;
5129;SDS011;2583;50.946;6.954;2023-02-01T16:40:40;13.60;;;2.67;;
5129;SDS011;2583;50.946;6.954;2023-02-01T16:43:15;10.97;;;2.50;;
5129;SDS011;2583;50.946;6.954;2023-02-01T16:45:45;15.03;;;2.83;;
5129;SDS011;2583;50.946;6.954;2023-02-01T16:48:33;18.43;;;3.40;;
5129;SDS011;2583;50.946;6.954;2023-02-01T16:51:02;18.50;;;2.83;;
5129;SDS011;2583;50.946;6.954;2023-02-01T16:53:34;9.10;;;2.97;;
5129;SDS011;2583;50.946;6.954;2023-02-01T16:56:19;9.45;;;2.50;;
5129;SDS011;2583;50.946;6.954;2023-02-01T16:58:48;16.30;;;3.10;;
5129;SDS011;2583;50.946;6.954;2023-02-01T17:01:15;12.60;;;3.10;;
5129;SDS011;2583;50.946;6.954;2023-02-01T17:03:44;8.00;;;2.77;;
5129;SDS011;2583;50.946;6.954;2023-02-01T17:06:13;9.52;;;3.05;;
5129;SDS011;2583;50.946;6.954;2023-02-01T17:08:47;13.47;;;3.37;;
5129;SDS011;2583;50.946;6.954;2023-02-01T17:11:20;20.00;;;3.20;;
5129;SDS011;2583;50.946;6.954;2023-02-01T17:13:47;9.03;;;3.00;;
5129;SDS011;2583;50.946;6.954;2023-02-01T17:18:46;14.33;;;2.73;;
5129;SDS011;2583;50.946;6.954;2023-02-01T17:21:22;12.40;;;3.00;;
5129;SDS011;2583;50.946;6.954;2023-02-01T17:23:51;6.30;;;2.30;;
5129;SDS011;2583;50.946;6.954;2023-02-01T17:26:18;11.87;;;2.70;;
5129;SDS011;2583;50.946;6.954;2023-02-01T17:28:45;13.15;;;3.00;;
5129;SDS011;2583;50.946;6.954;2023-02-01T17:31:13;12.20;;;3.37;;
5129;SDS011;2583;50.946;6.954;2023-02-01T17:33:44;8.50;;;2.50;;
5129;SDS011;2583;50.946;6.954;2023-02-01T17:36:13;17.77;;;3.37;;
5129;SDS011;2583;50.946;6.954;2023-02-01T17:38:42;9.87;;;2.80;;
5129;SDS011;2583;50.946;6.954;2023-02-01T17:41:19;10.33;;;3.40;;
5129;SDS011;2583;50.946;6.954;2023-02-01T17:43:46;11.33;;;3.70;;
5129;SDS011;2583;50.946;6.954;2023-02-01T17:46:15;11.18;;;3.08;;
5129;SDS011;2583;50.946;6.954;2023-02-01T17:48:44;13.32;;;3.00;;
5129;SDS011;2583;50.946;6.954;2023-02-01T17:51:14;11.50;;;3.17;;
5129;SDS011;2583;50.946;6.954;2023-02-01T17:53:43;10.70;;;2.63;;
5129;SDS011;2583;50.946;6.954;2023-02-01T17:56:17;13.83;;;3.90;;
5129;SDS011;2583;50.946;6.954;2023-02-01T17:58:45;12.80;;;3.37;;
5129;SDS011;2583;50.946;6.954;2023-02-01T18:01:14;11.73;;;2.97;;
5129;SDS011;2583;50.946;6.954;2023-02-01T18:03:46;11.65;;;2.90;;
5129;SDS011;2583;50.946;6.954;2023-02-01T18:06:14;8.23;;;2.97;;
5129;SDS011;2583;50.946;6.954;2023-02-01T18:08:43;8.55;;;3.75;;
5129;SDS011;2583;50.946;6.954;2023-02-01T18:11:11;10.52;;;3.00;;
5129;SDS011;2583;50.946;6.954;2023-02-01T18:13:40;19.07;;;3.33;;
5129;SDS011;2583;50.946;6.954;2023-02-01T18:16:21;11.93;;;3.20;;